S/y Stay Calm — MNVV3 — position and weather

sailwx.info

Track history (hours):
 
Tides and Currents Weather Stations Pressure Air Temp Water Temp Dewpoint Dewpoint Depression Visibility Wind Speed Wind Dir Waves Ship Positions

S/y Stay Calm

Last reported at 2017-May-12 23:20 UTC. Time now 2017-Jun-26 03:41 UTC.
Position N 17°44' W 061°59'.
Warning: this ship's position is 44 days out of date.

Length 24 m.

Type: Sailing vessel. MMSI: 235038688.

Date/timePositionNaut miles runAvg speedWind from/ knotsBaromVisibWave heightAir tempDewpointWater temp
2017-May-12 23:20N 17°44' W 061°59'3 9.1
2017-May-12 23:00N 17°41' W 061°58'4 7.2
2017-May-12 22:30N 17°38' W 061°56'3 6.0
2017-May-12 22:00N 17°36' W 061°53'3 6.9
2017-May-12 21:31N 17°33' W 061°52'2 4.9
2017-May-12 21:00N 17°31' W 061°51'4 7.5
2017-May-12 20:30N 17°27' W 061°50'4 7.3
2017-May-12 20:01N 17°26' W 061°47'4 7.1
2017-May-12 19:30N 17°23' W 061°45'4 8.4
2017-May-12 19:00N 17°19' W 061°43'4 8.8
2017-May-12 18:30N 17°14' W 061°42'4 8.1
2017-May-12 18:00N 17°11' W 061°41'4 7.5
2017-May-12 17:30N 17°07' W 061°40'4 7.6
2017-May-12 17:00N 17°03' W 061°40'4 7.4
2017-May-12 16:30N 17°01' W 061°42'3 6.2
2017-May-12 16:00N 16°59' W 061°45'0 0.7
2017-May-12 15:30N 16°60' W 061°45'1 1.4
2017-May-12 15:00N 16°59' W 061°46'1 2.7
2017-May-12 14:30N 16°60' W 061°47'1 1.0
2017-May-12 13:29N 17°01' W 061°46'0 0.0
2017-May-12 12:59N 17°01' W 061°46'0 0.0
2017-May-12 12:29N 17°01' W 061°46'0 0.0
2017-May-12 11:59N 17°01' W 061°46'0 0.0
2017-May-12 11:29N 17°01' W 061°46'0 0.0
2017-May-12 10:59N 17°01' W 061°46'0 0.0
2017-May-12 10:29N 17°01' W 061°46'0 0.0
2017-May-12 09:59N 17°01' W 061°46'0 0.0
2017-May-12 09:29N 17°01' W 061°46'0 0.0
2017-May-12 08:59N 17°01' W 061°46'0 0.0
2017-May-12 08:29N 17°01' W 061°46'0 0.0
2017-May-12 07:59N 17°01' W 061°46'0 0.0
2017-May-12 07:29N 17°01' W 061°46'0 0.0
2017-May-12 06:59N 17°01' W 061°46'0 0.0
2017-May-12 06:29N 17°01' W 061°46'0 0.0
2017-May-12 05:59N 17°01' W 061°46'0 0.0
2017-May-12 05:23N 17°01' W 061°46'0 0.0
2017-May-12 04:59N 17°01' W 061°46'0 0.0
2017-May-12 04:29N 17°01' W 061°46'0 0.0
2017-May-12 03:59N 17°01' W 061°46'0 0.0
2017-May-12 03:29N 17°01' W 061°46'0 0.0
2017-May-12 02:59N 17°01' W 061°46'0 0.0
2017-May-12 02:29N 17°01' W 061°46'0 0.0
2017-May-12 01:59N 17°01' W 061°46'0 0.0
2017-May-12 01:29N 17°01' W 061°46'0 0.0
2017-May-12 00:59N 17°01' W 061°46'0 0.0
2017-May-12 00:29N 17°01' W 061°46'0 0.0
2017-May-11 23:56N 17°01' W 061°46'0 0.0
2017-May-11 23:29N 17°01' W 061°46'0 0.0
2017-May-11 22:59N 17°01' W 061°46'0 0.0
2017-May-11 22:29N 17°01' W 061°46'0 0.0
2017-May-11 21:59N 17°01' W 061°46'0 0.0
2017-May-11 21:29N 17°01' W 061°46'0 0.0
2017-May-11 20:59N 17°01' W 061°46'0 0.0
2017-May-11 20:29N 17°01' W 061°46'0 0.0
2017-May-11 19:59N 17°01' W 061°46'0 0.0
2017-May-11 19:29N 17°01' W 061°46'0 0.0
2017-May-11 18:59N 17°01' W 061°46'0 0.0
2017-May-11 18:30N 17°01' W 061°46'0 0.0
2017-May-11 17:59N 17°01' W 061°46'0 0.0
2017-May-11 17:30N 17°01' W 061°46'0 0.0
2017-May-11 16:59N 17°01' W 061°46'0 0.0
2017-May-11 16:30N 17°01' W 061°46'0 0.0
2017-May-11 16:00N 17°01' W 061°46'0 0.0
2017-May-11 15:30N 17°01' W 061°46'0 0.0
2017-May-11 14:57N 17°01' W 061°46'0 0.0
2017-May-11 14:30N 17°01' W 061°46'0 0.0
2017-May-11 13:30N 17°01' W 061°46'0 0.0
2017-May-11 13:00N 17°01' W 061°46'0 0.0
2017-May-11 12:30N 17°01' W 061°46'0 0.0
2017-May-11 12:00N 17°01' W 061°46'0 0.0
2017-May-11 11:30N 17°01' W 061°46'0 0.0
2017-May-11 11:00N 17°01' W 061°46'0 0.0
2017-May-11 10:30N 17°01' W 061°46'0 0.0
2017-May-11 10:00N 17°01' W 061°46'0 0.0
2017-May-11 09:30N 17°01' W 061°46'0 0.0
2017-May-11 09:00N 17°01' W 061°46'0 0.0
2017-May-11 08:30N 17°01' W 061°46'0 0.0
2017-May-11 08:00N 17°01' W 061°46'0 0.0
2017-May-11 07:30N 17°01' W 061°46'0 0.0
2017-May-11 07:00N 17°01' W 061°46'0 0.0
2017-May-11 06:30N 17°01' W 061°46'0 0.0
2017-May-11 06:00N 17°01' W 061°46'0 0.0
2017-May-11 05:30N 17°01' W 061°46'0 0.0
2017-May-11 05:00N 17°01' W 061°46'0 0.0
2017-May-11 04:30N 17°01' W 061°46'0 0.0
2017-May-11 04:00N 17°01' W 061°46'0 0.0
2017-May-11 03:30N 17°01' W 061°46'0 0.0
2017-May-11 03:00N 17°01' W 061°46'0 0.0
2017-May-11 02:30N 17°01' W 061°46'0 0.0
2017-May-11 02:00N 17°01' W 061°46'0 0.0
2017-May-11 01:30N 17°01' W 061°46'0 0.0
2017-May-11 01:00N 17°01' W 061°46'0 0.0
2017-May-11 00:30N 17°01' W 061°46'0 0.0
2017-May-11 00:00N 17°01' W 061°46'0 0.0
2017-May-10 23:30N 17°01' W 061°46'0 0.0
2017-May-10 23:00N 17°01' W 061°46'0 0.0
2017-May-10 22:30N 17°01' W 061°46'0 0.0
2017-May-10 22:00N 17°01' W 061°46'0 0.0
2017-May-10 21:30N 17°01' W 061°46'0 0.0
2017-May-10 21:00N 17°01' W 061°46'0 0.0
2017-May-10 20:30N 17°01' W 061°46'0 0.0
2017-May-10 20:00N 17°01' W 061°46'0 0.0
2017-May-10 19:30N 17°01' W 061°46'0 0.0
2017-May-10 19:00N 17°01' W 061°46'0 0.0
2017-May-10 18:24N 17°01' W 061°46'0 0.0
2017-May-10 18:00N 17°01' W 061°46'0 0.0
2017-May-10 17:30N 17°01' W 061°46'0 0.0
2017-May-10 17:00N 17°01' W 061°46'0 0.0
2017-May-10 16:30N 17°01' W 061°46'0 0.0
2017-May-10 16:00N 17°01' W 061°46'0 0.0
2017-May-10 15:30N 17°01' W 061°46'0 0.0
2017-May-10 15:00N 17°01' W 061°46'0 0.0
2017-May-10 14:00N 17°01' W 061°46'0 0.0
2017-May-10 13:30N 17°01' W 061°46'0 0.0
2017-May-10 13:00N 17°01' W 061°46'0 0.0
2017-May-10 12:30N 17°01' W 061°46'0 0.0
2017-May-10 12:00N 17°01' W 061°46'0 0.0
2017-May-10 11:30N 17°01' W 061°46'0 0.0
2017-May-10 11:00N 17°01' W 061°46'0 0.0
2017-May-10 10:30N 17°01' W 061°46'0 0.0
2017-May-10 10:00N 17°01' W 061°46'0 0.0
2017-May-10 09:30N 17°01' W 061°46'0 0.0
2017-May-10 09:00N 17°01' W 061°46'0 0.0
2017-May-10 08:30N 17°01' W 061°46'0 0.0
2017-May-10 08:00N 17°01' W 061°46'0 0.0
2017-May-10 07:30N 17°01' W 061°46'0 0.0
2017-May-10 07:00N 17°01' W 061°46'0 0.0
2017-May-10 06:30N 17°01' W 061°46'0 0.0
2017-May-10 06:00N 17°01' W 061°46'0 0.0
2017-May-10 05:30N 17°01' W 061°46'0 0.0
2017-May-10 05:00N 17°01' W 061°46'0 0.0
2017-May-10 04:30N 17°01' W 061°46'0 0.0
2017-May-10 04:00N 17°01' W 061°46'0 0.0
2017-May-10 03:30N 17°01' W 061°46'0 0.0
2017-May-10 03:00N 17°01' W 061°46'0 0.0
2017-May-10 02:30N 17°01' W 061°46'0 0.0
2017-May-10 02:00N 17°01' W 061°46'0 0.0
2017-May-10 01:30N 17°01' W 061°46'0 0.0
2017-May-10 01:00N 17°01' W 061°46'0 0.0
2017-May-10 00:30N 17°01' W 061°46'0 0.0
2017-May-10 00:00N 17°01' W 061°46'0 0.0
2017-May-09 23:30N 17°01' W 061°46'0 0.0
2017-May-09 23:00N 17°01' W 061°46'0 0.0
2017-May-09 22:30N 17°01' W 061°46'0 0.0
2017-May-09 22:00N 17°01' W 061°46'0 0.0
2017-May-09 21:30N 17°01' W 061°46'0 0.0
2017-May-09 21:00N 17°01' W 061°46'0 0.0
2017-May-09 20:30N 17°01' W 061°46'0 0.0
2017-May-09 20:00N 17°01' W 061°46'0 0.0
2017-May-09 19:30N 17°01' W 061°46'0 0.0
2017-May-09 19:00N 17°01' W 061°46'0 0.0
2017-May-09 18:30N 17°01' W 061°46'0 0.0
2017-May-09 18:00N 17°01' W 061°46'0 0.0
2017-May-09 17:30N 17°01' W 061°46'0 0.0
2017-May-09 17:00N 17°01' W 061°46'0 0.0
2017-May-09 16:30N 17°01' W 061°46'0 0.0
2017-May-09 16:00N 17°01' W 061°46'0 0.0
2017-May-09 15:30N 17°01' W 061°46'0 0.0
2017-May-09 15:00N 17°01' W 061°46'0 0.0
2017-May-09 14:00N 17°01' W 061°46'0 0.0
2017-May-09 13:30N 17°01' W 061°46'0 0.0
2017-May-09 13:00N 17°01' W 061°46'0 0.0
2017-May-09 12:30N 17°01' W 061°46'0 0.0
2017-May-09 12:00N 17°01' W 061°46'0 0.0
2017-May-09 11:30N 17°01' W 061°46'0 0.0
2017-May-09 11:00N 17°01' W 061°46'0 0.0
2017-May-09 10:30N 17°01' W 061°46'0 0.0
2017-May-09 10:00N 17°01' W 061°46'0 0.0
2017-May-09 09:30N 17°01' W 061°46'0 0.0
2017-May-09 09:00N 17°01' W 061°46'0 0.0
2017-May-09 08:30N 17°01' W 061°46'0 0.0
2017-May-09 08:00N 17°01' W 061°46'0 0.0
2017-May-09 07:30N 17°01' W 061°46'0 0.0
2017-May-09 07:00N 17°01' W 061°46'0 0.0
2017-May-09 06:30N 17°01' W 061°46'0 0.0
2017-May-09 06:00N 17°01' W 061°46'0 0.0
2017-May-09 05:30N 17°01' W 061°46'0 0.0
2017-May-09 05:00N 17°01' W 061°46'0 0.0
2017-May-09 04:30N 17°01' W 061°46'0 0.0
2017-May-09 04:00N 17°01' W 061°46'0 0.0
2017-May-09 03:30N 17°01' W 061°46'0 0.0
2017-May-09 03:00N 17°01' W 061°46'0 0.0
2017-May-09 02:30N 17°01' W 061°46'0 0.0
2017-May-09 02:00N 17°01' W 061°46'0 0.0
2017-May-09 01:30N 17°01' W 061°46'0 0.0
2017-May-09 01:00N 17°01' W 061°46'0 0.0
2017-May-09 00:30N 17°01' W 061°46'0 0.0
2017-May-09 00:00N 17°01' W 061°46'0 0.0
2017-May-08 23:30N 17°01' W 061°46'0 0.0
2017-May-08 23:00N 17°01' W 061°46'0 0.0
2017-May-08 22:30N 17°01' W 061°46'0 0.0
2017-May-08 22:00N 17°01' W 061°46'0 0.0
2017-May-08 21:27N 17°01' W 061°46'0 0.0
2017-May-08 21:00N 17°01' W 061°46'0 0.0
2017-May-08 20:30N 17°01' W 061°46'0 0.0
2017-May-08 20:00N 17°01' W 061°46'0 0.0
2017-May-08 19:30N 17°01' W 061°46'0 0.0
2017-May-08 19:00N 17°01' W 061°46'0 0.0
2017-May-08 18:30N 17°01' W 061°46'0 0.0
2017-May-08 18:00N 17°01' W 061°46'0 0.0
2017-May-08 17:30N 17°01' W 061°46'0 0.0
2017-May-08 17:00N 17°01' W 061°46'0 0.0
2017-May-08 16:30N 17°01' W 061°46'0 0.0
2017-May-08 16:00N 17°01' W 061°46'0 0.0
2017-May-08 15:30N 17°01' W 061°46'0 0.0
2017-May-08 15:00N 17°01' W 061°46'0 0.0
2017-May-08 14:30N 17°01' W 061°46'0 0.0
2017-May-08 13:30N 17°01' W 061°46'0 0.0
2017-May-08 13:00N 17°01' W 061°46'0 0.0
2017-May-08 12:30N 17°01' W 061°46'0 0.0
2017-May-08 12:00N 17°01' W 061°46'0 0.0
2017-May-08 11:30N 17°01' W 061°46'0 0.0
2017-May-08 11:00N 17°01' W 061°46'0 0.0
2017-May-08 10:27N 17°01' W 061°46'0 0.0
2017-May-08 10:00N 17°01' W 061°46'0 0.0
2017-May-08 09:30N 17°01' W 061°46'0 0.0
2017-May-08 09:00N 17°01' W 061°46'0 0.0
2017-May-08 08:12N 17°01' W 061°46'0 0.0
2017-May-08 08:00N 17°01' W 061°46'0 0.0
2017-May-08 07:30N 17°01' W 061°46'0 0.0
2017-May-08 07:00N 17°01' W 061°46'0 0.0
2017-May-08 06:30N 17°01' W 061°46'0 0.0
2017-May-08 06:00N 17°01' W 061°46'0 0.0
2017-May-08 05:30N 17°01' W 061°46'0 0.0
2017-May-08 05:00N 17°01' W 061°46'0 0.0
2017-May-08 04:30N 17°01' W 061°46'0 0.0
2017-May-08 03:57N 17°01' W 061°46'0 0.0
2017-May-08 03:30N 17°01' W 061°46'0 0.0
2017-May-08 03:00N 17°01' W 061°46'0 0.0
2017-May-08 02:30N 17°01' W 061°46'0 0.0
2017-May-08 02:00N 17°01' W 061°46'0 0.0
2017-May-08 01:30N 17°01' W 061°46'0 0.0
2017-May-08 01:00N 17°01' W 061°46'0 0.0
2017-May-08 00:30N 17°01' W 061°46'0 0.0
2017-May-08 00:00N 17°01' W 061°46'0 0.0
2017-May-07 23:30N 17°01' W 061°46'0 0.0
2017-May-07 23:00N 17°01' W 061°46'0 0.0
2017-May-07 22:30N 17°01' W 061°46'0 0.0
2017-May-07 22:00N 17°01' W 061°46'0 0.0
2017-May-07 21:27N 17°01' W 061°46'0 0.0
2017-May-07 21:00N 17°01' W 061°46'0 0.0
2017-May-07 20:30N 17°01' W 061°46'0 0.0
2017-May-07 20:00N 17°01' W 061°46'0 0.0
2017-May-07 19:30N 17°01' W 061°46'0 0.0
2017-May-07 19:00N 17°01' W 061°46'0 0.0
2017-May-07 18:30N 17°01' W 061°46'0 0.0
2017-May-07 18:00N 17°01' W 061°46'0 0.0
2017-May-07 17:30N 17°01' W 061°46'0 0.0
2017-May-07 17:00N 17°01' W 061°46'0 0.0
2017-May-07 16:30N 17°01' W 061°46'0 0.0
2017-May-07 16:00N 17°01' W 061°46'0 0.0
2017-May-07 15:30N 17°01' W 061°46'0 0.0
2017-May-07 15:00N 17°01' W 061°46'0 0.0
2017-May-07 14:30N 17°01' W 061°46'0 0.0
2017-May-07 13:30N 17°01' W 061°46'0 0.0
2017-May-07 13:00N 17°01' W 061°46'0 0.0
2017-May-07 12:30N 17°01' W 061°46'0 0.0
2017-May-07 12:00N 17°01' W 061°46'0 0.0
2017-May-07 11:30N 17°01' W 061°46'0 0.0
2017-May-07 11:00N 17°01' W 061°46'0 0.0
2017-May-07 10:30N 17°01' W 061°46'0 0.0
2017-May-07 10:00N 17°01' W 061°46'0 0.0
2017-May-07 09:30N 17°01' W 061°46'0 0.0
2017-May-07 09:00N 17°01' W 061°46'0 0.0
2017-May-07 08:30N 17°01' W 061°46'0 0.0
2017-May-07 08:00N 17°01' W 061°46'0 0.0
2017-May-07 07:30N 17°01' W 061°46'0 0.0
2017-May-07 07:00N 17°01' W 061°46'0 0.0
2017-May-07 06:30N 17°01' W 061°46'0 0.0
2017-May-07 06:00N 17°01' W 061°46'0 0.0
2017-May-07 05:30N 17°01' W 061°46'0 0.0
2017-May-07 05:00N 17°01' W 061°46'0 0.0
2017-May-07 04:30N 17°01' W 061°46'0 0.0
2017-May-07 04:00N 17°01' W 061°46'0 0.0
2017-May-07 03:30N 17°01' W 061°46'0 0.0
2017-May-07 03:00N 17°01' W 061°46'0 0.0
2017-May-07 02:30N 17°01' W 061°46'0 0.0
2017-May-07 02:00N 17°01' W 061°46'0 0.0
2017-May-07 01:30N 17°01' W 061°46'0 0.0
2017-May-07 01:00N 17°01' W 061°46'0 0.0
2017-May-07 00:31N 17°01' W 061°46'0 0.0
2017-May-07 00:01N 17°01' W 061°46'0 0.0
2017-May-06 23:31N 17°01' W 061°46'0 0.0
2017-May-06 23:01N 17°01' W 061°46'0 0.0
2017-May-06 22:28N 17°01' W 061°46'0 0.0
2017-May-06 21:58N 17°01' W 061°46'0 0.0
2017-May-06 21:31N 17°01' W 061°46'0 0.0
2017-May-06 21:01N 17°01' W 061°46'0 0.0
2017-May-06 20:28N 17°01' W 061°46'0 0.0
2017-May-06 20:01N 17°01' W 061°46'0 0.0
2017-May-06 19:28N 17°01' W 061°46'0 0.0
2017-May-06 18:58N 17°01' W 061°46'0 0.0
2017-May-06 18:28N 17°01' W 061°46'0 0.0
2017-May-06 17:58N 17°01' W 061°46'0 0.0
2017-May-06 17:28N 17°01' W 061°46'0 0.0
2017-May-06 16:58N 17°01' W 061°46'0 0.0
2017-May-06 16:28N 17°01' W 061°46'0 0.0
2017-May-06 15:58N 17°01' W 061°46'0 0.0
2017-May-06 15:28N 17°01' W 061°46'0 0.0
2017-May-06 14:58N 17°01' W 061°46'0 0.0
2017-May-06 14:28N 17°01' W 061°46'1 0.9
2017-May-06 13:30N 17°00' W 061°46'0 0.7
2017-May-06 12:59N 17°00' W 061°46'0 0.0
2017-May-06 12:29N 17°00' W 061°46'0 0.0
2017-May-06 11:59N 17°00' W 061°46'0 0.0
2017-May-06 11:29N 17°00' W 061°46'0 0.0
2017-May-06 10:59N 17°00' W 061°46'0 0.0
2017-May-06 10:29N 17°00' W 061°46'0 0.0
2017-May-06 09:59N 17°00' W 061°46'0 0.0
2017-May-06 09:29N 17°00' W 061°46'0 0.0
2017-May-06 08:59N 17°00' W 061°46'0 0.0
2017-May-06 08:29N 17°00' W 061°46'0 0.0
2017-May-06 07:59N 17°00' W 061°46'0 0.0
2017-May-06 07:29N 17°00' W 061°46'0 0.0
2017-May-06 06:59N 17°00' W 061°46'0 0.0
2017-May-06 06:29N 17°00' W 061°46'0 0.0
2017-May-06 05:59N 17°00' W 061°46'0 0.0
2017-May-06 05:29N 17°00' W 061°46'0 0.0
2017-May-06 04:59N 17°00' W 061°46'0 0.0
2017-May-06 04:29N 17°00' W 061°46'0 0.0
2017-May-06 03:59N 17°00' W 061°46'0 0.0
2017-May-06 03:29N 17°00' W 061°46'0 0.0
2017-May-06 02:59N 17°00' W 061°46'0 0.0
2017-May-06 02:26N 17°00' W 061°46'0 0.0
2017-May-06 01:59N 17°00' W 061°46'0 0.0
2017-May-06 01:29N 17°00' W 061°46'0 0.0
2017-May-06 00:59N 17°00' W 061°46'0 0.0
2017-May-06 00:29N 17°00' W 061°46'0 0.0
2017-May-05 23:59N 17°00' W 061°46'0 0.0
2017-May-05 23:29N 17°00' W 061°46'0 0.0
2017-May-05 22:59N 17°00' W 061°46'0 0.0
2017-May-05 22:29N 17°00' W 061°46'0 0.0
2017-May-05 21:59N 17°00' W 061°46'0 0.0
2017-May-05 21:29N 17°00' W 061°46'0 0.0
2017-May-05 20:59N 17°00' W 061°46'0 0.0
2017-May-05 20:29N 17°00' W 061°46'0 0.0
2017-May-05 19:59N 17°00' W 061°46'0 0.0
2017-May-05 19:29N 17°00' W 061°46'0 0.0
2017-May-05 18:59N 17°00' W 061°46'0 0.0
2017-May-05 18:29N 17°00' W 061°46'1 1.0
2017-May-05 18:00N 16°60' W 061°46'0 0.5
2017-May-05 17:30N 16°60' W 061°46'510.1
2017-May-05 17:00N 16°60' W 061°41'1 1.5
2017-May-05 16:30N 17°00' W 061°40'4 7.3
2017-May-05 16:00N 16°59' W 061°44'4 7.4
2017-May-05 15:30N 16°59' W 061°40'1 2.8
2017-May-05 15:00N 17°00' W 061°41'6 5.6
2017-May-05 14:01N 16°60' W 061°47'0 0.6
2017-May-05 13:30N 16°60' W 061°46'1 2.0
2017-May-05 13:00N 17°00' W 061°46'0 0.4
2017-May-05 12:29N 17°00' W 061°46'0 0.0
2017-May-05 11:59N 17°00' W 061°46'0 0.0
2017-May-05 11:29N 17°00' W 061°46'0 0.0
2017-May-05 10:59N 17°00' W 061°46'0 0.0
2017-May-05 10:29N 17°00' W 061°46'0 0.0
2017-May-05 09:59N 17°00' W 061°46'0 0.0
2017-May-05 09:29N 17°00' W 061°46'0 0.0
2017-May-05 08:59N 17°00' W 061°46'0 0.0
2017-May-05 08:29N 17°00' W 061°46'0 0.0
2017-May-05 07:59N 17°00' W 061°46'0 0.0
2017-May-05 07:29N 17°00' W 061°46'0 0.0
2017-May-05 06:59N 17°00' W 061°46'0 0.0
2017-May-05 06:29N 17°00' W 061°46'0 0.0
2017-May-05 05:59N 17°00' W 061°46'0 0.0
2017-May-05 05:29N 17°00' W 061°46'0 0.0
2017-May-05 04:59N 17°00' W 061°46'0 0.0
2017-May-05 04:29N 17°00' W 061°46'0 0.0
2017-May-05 03:59N 17°00' W 061°46'0 0.0
2017-May-05 03:29N 17°00' W 061°46'0 0.0
2017-May-05 02:59N 17°00' W 061°46'0 0.0
2017-May-05 02:29N 17°00' W 061°46'0 0.0
2017-May-05 01:59N 17°00' W 061°46'0 0.0
2017-May-05 01:29N 17°00' W 061°46'0 0.0
2017-May-05 00:59N 17°00' W 061°46'0 0.0
2017-May-05 00:29N 17°00' W 061°46'0 0.0
2017-May-04 23:59N 17°00' W 061°46'0 0.0
2017-May-04 23:29N 17°00' W 061°46'0 0.0
2017-May-04 22:59N 17°00' W 061°46'0 0.0
2017-May-04 22:29N 17°00' W 061°46'0 0.0
2017-May-04 21:59N 17°00' W 061°46'0 0.0
2017-May-04 21:29N 17°00' W 061°46'0 0.0
2017-May-04 20:59N 17°00' W 061°46'0 0.0
2017-May-04 20:29N 17°00' W 061°46'0 0.0
2017-May-04 19:59N 17°00' W 061°46'0 0.0
2017-May-04 19:29N 17°00' W 061°46'0 0.0
2017-May-04 19:00N 17°00' W 061°46'2 4.4
2017-May-04 18:30N 16°60' W 061°48'2 4.2
2017-May-04 18:00N 17°00' W 061°50'3 5.9
2017-May-04 17:28N 16°60' W 061°54'3 7.0
2017-May-04 17:00N 16°59' W 061°50'3 5.5
2017-May-04 16:30N 17°00' W 061°48'1 1.1
2017-May-04 16:00N 16°60' W 061°48'1 1.7
2017-May-04 15:30N 16°60' W 061°49'2 3.4
2017-May-04 15:00N 16°59' W 061°50'2 2.0
2017-May-04 14:00N 17°00' W 061°48'1 1.3
2017-May-04 13:31N 17°00' W 061°48'2 3.3
2017-May-04 12:58N 17°00' W 061°46'0 0.0
2017-May-04 12:28N 17°00' W 061°46'0 0.0
2017-May-04 11:58N 17°00' W 061°46'0 0.0
2017-May-04 11:28N 17°00' W 061°46'0 0.0
2017-May-04 10:58N 17°00' W 061°46'0 0.0
2017-May-04 10:28N 17°00' W 061°46'0 0.0
2017-May-04 09:58N 17°00' W 061°46'0 0.0
2017-May-04 09:28N 17°00' W 061°46'0 0.0
2017-May-04 08:58N 17°00' W 061°46'0 0.0
2017-May-04 08:28N 17°00' W 061°46'0 0.0
2017-May-04 07:58N 17°00' W 061°46'0 0.0
2017-May-04 07:28N 17°00' W 061°46'0 0.0
2017-May-04 06:58N 17°00' W 061°46'0 0.0
2017-May-04 06:28N 17°00' W 061°46'0 0.0
2017-May-04 05:58N 17°00' W 061°46'0 0.0
2017-May-04 05:28N 17°00' W 061°46'0 0.0
2017-May-04 04:58N 17°00' W 061°46'0 0.0
2017-May-04 04:28N 17°00' W 061°46'0 0.0
2017-May-04 03:58N 17°00' W 061°46'0 0.0
2017-May-04 03:28N 17°00' W 061°46'0 0.0
2017-May-04 02:58N 17°00' W 061°46'0 0.0
2017-May-04 02:28N 17°00' W 061°46'0 0.0
2017-May-04 01:58N 17°00' W 061°46'0 0.0
2017-May-04 01:28N 17°00' W 061°46'0 0.0
2017-May-04 00:58N 17°00' W 061°46'0 0.0
2017-May-04 00:28N 17°00' W 061°46'0 0.0
2017-May-03 23:58N 17°00' W 061°46'0 0.0
2017-May-03 23:28N 17°00' W 061°46'0 0.0
2017-May-03 22:58N 17°00' W 061°46'0 0.0
2017-May-03 22:28N 17°00' W 061°46'0 0.0
2017-May-03 21:58N 17°00' W 061°46'0 0.0
2017-May-03 21:28N 17°00' W 061°46'0 0.0
2017-May-03 20:58N 17°00' W 061°46'0 0.0
2017-May-03 20:28N 17°00' W 061°46'0 0.0
2017-May-03 19:58N 17°00' W 061°46'0 0.0
2017-May-03 19:28N 17°00' W 061°46'0 0.0
2017-May-03 18:58N 17°00' W 061°46'0 0.0
2017-May-03 18:28N 17°00' W 061°46'0 0.0
2017-May-03 17:58N 17°00' W 061°46'0 0.0
2017-May-03 17:28N 17°00' W 061°46'0 0.0
2017-May-03 16:58N 17°00' W 061°46'0 0.0
2017-May-03 16:28N 17°00' W 061°46'0 0.0
2017-May-03 15:58N 17°00' W 061°46'0 0.0
2017-May-03 15:28N 17°00' W 061°46'0 0.0
2017-May-03 14:58N 17°00' W 061°46'0 0.0
2017-May-03 14:28N 17°00' W 061°46'0 0.0
2017-May-03 13:28N 17°00' W 061°46'0 0.0
2017-May-03 12:58N 17°00' W 061°46'0 0.0
2017-May-03 12:28N 17°00' W 061°46'0 0.0
2017-May-03 11:58N 17°00' W 061°46'0 0.0
2017-May-03 11:28N 17°00' W 061°46'0 0.0
2017-May-03 10:58N 17°00' W 061°46'0 0.0
2017-May-03 10:28N 17°00' W 061°46'0 0.0
2017-May-03 09:58N 17°00' W 061°46'0 0.0
2017-May-03 09:28N 17°00' W 061°46'0 0.0
2017-May-03 08:58N 17°00' W 061°46'0 0.0
2017-May-03 08:28N 17°00' W 061°46'0 0.0
2017-May-03 07:58N 17°00' W 061°46'0 0.0
2017-May-03 07:28N 17°00' W 061°46'0 0.0
2017-May-03 06:58N 17°00' W 061°46'0 0.0
2017-May-03 06:28N 17°00' W 061°46'0 0.0
2017-May-03 05:58N 17°00' W 061°46'0 0.0
2017-May-03 05:28N 17°00' W 061°46'0 0.0
2017-May-03 04:58N 17°00' W 061°46'0 0.0
2017-May-03 04:28N 17°00' W 061°46'0 0.0
2017-May-03 03:58N 17°00' W 061°46'0 0.0
2017-May-03 03:28N 17°00' W 061°46'0 0.0
2017-May-03 02:58N 17°00' W 061°46'0 0.0
2017-May-03 02:28N 17°00' W 061°46'0 0.0
2017-May-03 01:58N 17°00' W 061°46'0 0.0
2017-May-03 01:28N 17°00' W 061°46'0 0.0
2017-May-03 00:58N 17°00' W 061°46'0 0.0
2017-May-03 00:28N 17°00' W 061°46'0 0.0
2017-May-02 23:58N 17°00' W 061°46'0 0.0
2017-May-02 23:28N 17°00' W 061°46'  
Track history (hours):
 
Tides and Currents Weather Stations Pressure Air Temp Water Temp Dewpoint Dewpoint Depression Visibility Wind Speed Wind Dir Waves Ship Positions

S/y Stay Calm

Last reported at 2017-May-12 23:20 UTC. Time now 2017-Jun-26 03:41 UTC.
Position N 17°44' W 061°59'.
Warning: this ship's position is 44 days out of date.

Length 24 m.

Type: Sailing vessel. MMSI: 235038688.

Date/timePositionNaut miles runAvg speedWind from/ knotsBaromVisibWave heightAir tempDewpointWater temp
2017-May-12 23:20N 17°44' W 061°59'3 9.1
2017-May-12 23:00N 17°41' W 061°58'4 7.2
2017-May-12 22:30N 17°38' W 061°56'3 6.0
2017-May-12 22:00N 17°36' W 061°53'3 6.9
2017-May-12 21:31N 17°33' W 061°52'2 4.9
2017-May-12 21:00N 17°31' W 061°51'4 7.5
2017-May-12 20:30N 17°27' W 061°50'4 7.3
2017-May-12 20:01N 17°26' W 061°47'4 7.1
2017-May-12 19:30N 17°23' W 061°45'4 8.4
2017-May-12 19:00N 17°19' W 061°43'4 8.8
2017-May-12 18:30N 17°14' W 061°42'4 8.1
2017-May-12 18:00N 17°11' W 061°41'4 7.5
2017-May-12 17:30N 17°07' W 061°40'4 7.6
2017-May-12 17:00N 17°03' W 061°40'4 7.4
2017-May-12 16:30N 17°01' W 061°42'3 6.2
2017-May-12 16:00N 16°59' W 061°45'0 0.7
2017-May-12 15:30N 16°60' W 061°45'1 1.4
2017-May-12 15:00N 16°59' W 061°46'1 2.7
2017-May-12 14:30N 16°60' W 061°47'1 1.0
2017-May-12 13:29N 17°01' W 061°46'0 0.0
2017-May-12 12:59N 17°01' W 061°46'0 0.0
2017-May-12 12:29N 17°01' W 061°46'0 0.0
2017-May-12 11:59N 17°01' W 061°46'0 0.0
2017-May-12 11:29N 17°01' W 061°46'0 0.0
2017-May-12 10:59N 17°01' W 061°46'0 0.0
2017-May-12 10:29N 17°01' W 061°46'0 0.0
2017-May-12 09:59N 17°01' W 061°46'0 0.0
2017-May-12 09:29N 17°01' W 061°46'0 0.0
2017-May-12 08:59N 17°01' W 061°46'0 0.0
2017-May-12 08:29N 17°01' W 061°46'0 0.0
2017-May-12 07:59N 17°01' W 061°46'0 0.0
2017-May-12 07:29N 17°01' W 061°46'0 0.0
2017-May-12 06:59N 17°01' W 061°46'0 0.0
2017-May-12 06:29N 17°01' W 061°46'0 0.0
2017-May-12 05:59N 17°01' W 061°46'0 0.0
2017-May-12 05:23N 17°01' W 061°46'0 0.0
2017-May-12 04:59N 17°01' W 061°46'0 0.0
2017-May-12 04:29N 17°01' W 061°46'0 0.0
2017-May-12 03:59N 17°01' W 061°46'0 0.0
2017-May-12 03:29N 17°01' W 061°46'0 0.0
2017-May-12 02:59N 17°01' W 061°46'0 0.0
2017-May-12 02:29N 17°01' W 061°46'0 0.0
2017-May-12 01:59N 17°01' W 061°46'0 0.0
2017-May-12 01:29N 17°01' W 061°46'0 0.0
2017-May-12 00:59N 17°01' W 061°46'0 0.0
2017-May-12 00:29N 17°01' W 061°46'0 0.0
2017-May-11 23:56N 17°01' W 061°46'0 0.0
2017-May-11 23:29N 17°01' W 061°46'0 0.0
2017-May-11 22:59N 17°01' W 061°46'0 0.0
2017-May-11 22:29N 17°01' W 061°46'0 0.0
2017-May-11 21:59N 17°01' W 061°46'0 0.0
2017-May-11 21:29N 17°01' W 061°46'0 0.0
2017-May-11 20:59N 17°01' W 061°46'0 0.0
2017-May-11 20:29N 17°01' W 061°46'0 0.0
2017-May-11 19:59N 17°01' W 061°46'0 0.0
2017-May-11 19:29N 17°01' W 061°46'0 0.0
2017-May-11 18:59N 17°01' W 061°46'0 0.0
2017-May-11 18:30N 17°01' W 061°46'0 0.0
2017-May-11 17:59N 17°01' W 061°46'0 0.0
2017-May-11 17:30N 17°01' W 061°46'0 0.0
2017-May-11 16:59N 17°01' W 061°46'0 0.0
2017-May-11 16:30N 17°01' W 061°46'0 0.0
2017-May-11 16:00N 17°01' W 061°46'0 0.0
2017-May-11 15:30N 17°01' W 061°46'0 0.0
2017-May-11 14:57N 17°01' W 061°46'0 0.0
2017-May-11 14:30N 17°01' W 061°46'0 0.0
2017-May-11 13:30N 17°01' W 061°46'0 0.0
2017-May-11 13:00N 17°01' W 061°46'0 0.0
2017-May-11 12:30N 17°01' W 061°46'0 0.0
2017-May-11 12:00N 17°01' W 061°46'0 0.0
2017-May-11 11:30N 17°01' W 061°46'0 0.0
2017-May-11 11:00N 17°01' W 061°46'0 0.0
2017-May-11 10:30N 17°01' W 061°46'0 0.0
2017-May-11 10:00N 17°01' W 061°46'0 0.0
2017-May-11 09:30N 17°01' W 061°46'0 0.0
2017-May-11 09:00N 17°01' W 061°46'0 0.0
2017-May-11 08:30N 17°01' W 061°46'0 0.0
2017-May-11 08:00N 17°01' W 061°46'0 0.0
2017-May-11 07:30N 17°01' W 061°46'0 0.0
2017-May-11 07:00N 17°01' W 061°46'0 0.0
2017-May-11 06:30N 17°01' W 061°46'0 0.0
2017-May-11 06:00N 17°01' W 061°46'0 0.0
2017-May-11 05:30N 17°01' W 061°46'0 0.0
2017-May-11 05:00N 17°01' W 061°46'0 0.0
2017-May-11 04:30N 17°01' W 061°46'0 0.0
2017-May-11 04:00N 17°01' W 061°46'0 0.0
2017-May-11 03:30N 17°01' W 061°46'0 0.0
2017-May-11 03:00N 17°01' W 061°46'0 0.0
2017-May-11 02:30N 17°01' W 061°46'0 0.0
2017-May-11 02:00N 17°01' W 061°46'0 0.0
2017-May-11 01:30N 17°01' W 061°46'0 0.0
2017-May-11 01:00N 17°01' W 061°46'0 0.0
2017-May-11 00:30N 17°01' W 061°46'0 0.0
2017-May-11 00:00N 17°01' W 061°46'0 0.0
2017-May-10 23:30N 17°01' W 061°46'0 0.0
2017-May-10 23:00N 17°01' W 061°46'0 0.0
2017-May-10 22:30N 17°01' W 061°46'0 0.0
2017-May-10 22:00N 17°01' W 061°46'0 0.0
2017-May-10 21:30N 17°01' W 061°46'0 0.0
2017-May-10 21:00N 17°01' W 061°46'0 0.0
2017-May-10 20:30N 17°01' W 061°46'0 0.0
2017-May-10 20:00N 17°01' W 061°46'0 0.0
2017-May-10 19:30N 17°01' W 061°46'0 0.0
2017-May-10 19:00N 17°01' W 061°46'0 0.0
2017-May-10 18:24N 17°01' W 061°46'0 0.0
2017-May-10 18:00N 17°01' W 061°46'0 0.0
2017-May-10 17:30N 17°01' W 061°46'0 0.0
2017-May-10 17:00N 17°01' W 061°46'0 0.0
2017-May-10 16:30N 17°01' W 061°46'0 0.0
2017-May-10 16:00N 17°01' W 061°46'0 0.0
2017-May-10 15:30N 17°01' W 061°46'0 0.0
2017-May-10 15:00N 17°01' W 061°46'0 0.0
2017-May-10 14:00N 17°01' W 061°46'0 0.0
2017-May-10 13:30N 17°01' W 061°46'0 0.0
2017-May-10 13:00N 17°01' W 061°46'0 0.0
2017-May-10 12:30N 17°01' W 061°46'0 0.0
2017-May-10 12:00N 17°01' W 061°46'0 0.0
2017-May-10 11:30N 17°01' W 061°46'0 0.0
2017-May-10 11:00N 17°01' W 061°46'0 0.0
2017-May-10 10:30N 17°01' W 061°46'0 0.0
2017-May-10 10:00N 17°01' W 061°46'0 0.0
2017-May-10 09:30N 17°01' W 061°46'0 0.0
2017-May-10 09:00N 17°01' W 061°46'0 0.0
2017-May-10 08:30N 17°01' W 061°46'0 0.0
2017-May-10 08:00N 17°01' W 061°46'0 0.0
2017-May-10 07:30N 17°01' W 061°46'0 0.0
2017-May-10 07:00N 17°01' W 061°46'0 0.0
2017-May-10 06:30N 17°01' W 061°46'0 0.0
2017-May-10 06:00N 17°01' W 061°46'0 0.0
2017-May-10 05:30N 17°01' W 061°46'0 0.0
2017-May-10 05:00N 17°01' W 061°46'0 0.0
2017-May-10 04:30N 17°01' W 061°46'0 0.0
2017-May-10 04:00N 17°01' W 061°46'0 0.0
2017-May-10 03:30N 17°01' W 061°46'0 0.0
2017-May-10 03:00N 17°01' W 061°46'0 0.0
2017-May-10 02:30N 17°01' W 061°46'0 0.0
2017-May-10 02:00N 17°01' W 061°46'0 0.0
2017-May-10 01:30N 17°01' W 061°46'0 0.0
2017-May-10 01:00N 17°01' W 061°46'0 0.0
2017-May-10 00:30N 17°01' W 061°46'0 0.0
2017-May-10 00:00N 17°01' W 061°46'0 0.0
2017-May-09 23:30N 17°01' W 061°46'0 0.0
2017-May-09 23:00N 17°01' W 061°46'0 0.0
2017-May-09 22:30N 17°01' W 061°46'0 0.0
2017-May-09 22:00N 17°01' W 061°46'0 0.0
2017-May-09 21:30N 17°01' W 061°46'0 0.0
2017-May-09 21:00N 17°01' W 061°46'0 0.0
2017-May-09 20:30N 17°01' W 061°46'0 0.0
2017-May-09 20:00N 17°01' W 061°46'0 0.0
2017-May-09 19:30N 17°01' W 061°46'0 0.0
2017-May-09 19:00N 17°01' W 061°46'0 0.0
2017-May-09 18:30N 17°01' W 061°46'0 0.0
2017-May-09 18:00N 17°01' W 061°46'0 0.0
2017-May-09 17:30N 17°01' W 061°46'0 0.0
2017-May-09 17:00N 17°01' W 061°46'0 0.0
2017-May-09 16:30N 17°01' W 061°46'0 0.0
2017-May-09 16:00N 17°01' W 061°46'0 0.0
2017-May-09 15:30N 17°01' W 061°46'0 0.0
2017-May-09 15:00N 17°01' W 061°46'0 0.0
2017-May-09 14:00N 17°01' W 061°46'0 0.0
2017-May-09 13:30N 17°01' W 061°46'0 0.0
2017-May-09 13:00N 17°01' W 061°46'0 0.0
2017-May-09 12:30N 17°01' W 061°46'0 0.0
2017-May-09 12:00N 17°01' W 061°46'0 0.0
2017-May-09 11:30N 17°01' W 061°46'0 0.0
2017-May-09 11:00N 17°01' W 061°46'0 0.0
2017-May-09 10:30N 17°01' W 061°46'0 0.0
2017-May-09 10:00N 17°01' W 061°46'0 0.0
2017-May-09 09:30N 17°01' W 061°46'0 0.0
2017-May-09 09:00N 17°01' W 061°46'0 0.0
2017-May-09 08:30N 17°01' W 061°46'0 0.0
2017-May-09 08:00N 17°01' W 061°46'0 0.0
2017-May-09 07:30N 17°01' W 061°46'0 0.0
2017-May-09 07:00N 17°01' W 061°46'0 0.0
2017-May-09 06:30N 17°01' W 061°46'0 0.0
2017-May-09 06:00N 17°01' W 061°46'0 0.0
2017-May-09 05:30N 17°01' W 061°46'0 0.0
2017-May-09 05:00N 17°01' W 061°46'0 0.0
2017-May-09 04:30N 17°01' W 061°46'0 0.0
2017-May-09 04:00N 17°01' W 061°46'0 0.0
2017-May-09 03:30N 17°01' W 061°46'0 0.0
2017-May-09 03:00N 17°01' W 061°46'0 0.0
2017-May-09 02:30N 17°01' W 061°46'0 0.0
2017-May-09 02:00N 17°01' W 061°46'0 0.0
2017-May-09 01:30N 17°01' W 061°46'0 0.0
2017-May-09 01:00N 17°01' W 061°46'0 0.0
2017-May-09 00:30N 17°01' W 061°46'0 0.0
2017-May-09 00:00N 17°01' W 061°46'0 0.0
2017-May-08 23:30N 17°01' W 061°46'0 0.0
2017-May-08 23:00N 17°01' W 061°46'0 0.0
2017-May-08 22:30N 17°01' W 061°46'0 0.0
2017-May-08 22:00N 17°01' W 061°46'0 0.0
2017-May-08 21:27N 17°01' W 061°46'0 0.0
2017-May-08 21:00N 17°01' W 061°46'0 0.0
2017-May-08 20:30N 17°01' W 061°46'0 0.0
2017-May-08 20:00N 17°01' W 061°46'0 0.0
2017-May-08 19:30N 17°01' W 061°46'0 0.0
2017-May-08 19:00N 17°01' W 061°46'0 0.0
2017-May-08 18:30N 17°01' W 061°46'0 0.0
2017-May-08 18:00N 17°01' W 061°46'0 0.0
2017-May-08 17:30N 17°01' W 061°46'0 0.0
2017-May-08 17:00N 17°01' W 061°46'0 0.0
2017-May-08 16:30N 17°01' W 061°46'0 0.0
2017-May-08 16:00N 17°01' W 061°46'0 0.0
2017-May-08 15:30N 17°01' W 061°46'0 0.0
2017-May-08 15:00N 17°01' W 061°46'0 0.0
2017-May-08 14:30N 17°01' W 061°46'0 0.0
2017-May-08 13:30N 17°01' W 061°46'0 0.0
2017-May-08 13:00N 17°01' W 061°46'0 0.0
2017-May-08 12:30N 17°01' W 061°46'0 0.0
2017-May-08 12:00N 17°01' W 061°46'0 0.0
2017-May-08 11:30N 17°01' W 061°46'0 0.0
2017-May-08 11:00N 17°01' W 061°46'0 0.0
2017-May-08 10:27N 17°01' W 061°46'0 0.0
2017-May-08 10:00N 17°01' W 061°46'0 0.0
2017-May-08 09:30N 17°01' W 061°46'0 0.0
2017-May-08 09:00N 17°01' W 061°46'0 0.0
2017-May-08 08:12N 17°01' W 061°46'0 0.0
2017-May-08 08:00N 17°01' W 061°46'0 0.0
2017-May-08 07:30N 17°01' W 061°46'0 0.0
2017-May-08 07:00N 17°01' W 061°46'0 0.0
2017-May-08 06:30N 17°01' W 061°46'0 0.0
2017-May-08 06:00N 17°01' W 061°46'0 0.0
2017-May-08 05:30N 17°01' W 061°46'0 0.0
2017-May-08 05:00N 17°01' W 061°46'0 0.0
2017-May-08 04:30N 17°01' W 061°46'0 0.0
2017-May-08 03:57N 17°01' W 061°46'0 0.0
2017-May-08 03:30N 17°01' W 061°46'0 0.0
2017-May-08 03:00N 17°01' W 061°46'0 0.0
2017-May-08 02:30N 17°01' W 061°46'0 0.0
2017-May-08 02:00N 17°01' W 061°46'0 0.0
2017-May-08 01:30N 17°01' W 061°46'0 0.0
2017-May-08 01:00N 17°01' W 061°46'0 0.0
2017-May-08 00:30N 17°01' W 061°46'0 0.0
2017-May-08 00:00N 17°01' W 061°46'0 0.0
2017-May-07 23:30N 17°01' W 061°46'0 0.0
2017-May-07 23:00N 17°01' W 061°46'0 0.0
2017-May-07 22:30N 17°01' W 061°46'0 0.0
2017-May-07 22:00N 17°01' W 061°46'0 0.0
2017-May-07 21:27N 17°01' W 061°46'0 0.0
2017-May-07 21:00N 17°01' W 061°46'0 0.0
2017-May-07 20:30N 17°01' W 061°46'0 0.0
2017-May-07 20:00N 17°01' W 061°46'0 0.0
2017-May-07 19:30N 17°01' W 061°46'0 0.0
2017-May-07 19:00N 17°01' W 061°46'0 0.0
2017-May-07 18:30N 17°01' W 061°46'0 0.0
2017-May-07 18:00N 17°01' W 061°46'0 0.0
2017-May-07 17:30N 17°01' W 061°46'0 0.0
2017-May-07 17:00N 17°01' W 061°46'0 0.0
2017-May-07 16:30N 17°01' W 061°46'0 0.0
2017-May-07 16:00N 17°01' W 061°46'0 0.0
2017-May-07 15:30N 17°01' W 061°46'0 0.0
2017-May-07 15:00N 17°01' W 061°46'0 0.0
2017-May-07 14:30N 17°01' W 061°46'0 0.0
2017-May-07 13:30N 17°01' W 061°46'0 0.0
2017-May-07 13:00N 17°01' W 061°46'0 0.0
2017-May-07 12:30N 17°01' W 061°46'0 0.0
2017-May-07 12:00N 17°01' W 061°46'0 0.0
2017-May-07 11:30N 17°01' W 061°46'0 0.0
2017-May-07 11:00N 17°01' W 061°46'0 0.0
2017-May-07 10:30N 17°01' W 061°46'0 0.0
2017-May-07 10:00N 17°01' W 061°46'0 0.0
2017-May-07 09:30N 17°01' W 061°46'0 0.0
2017-May-07 09:00N 17°01' W 061°46'0 0.0
2017-May-07 08:30N 17°01' W 061°46'0 0.0
2017-May-07 08:00N 17°01' W 061°46'0 0.0
2017-May-07 07:30N 17°01' W 061°46'0 0.0
2017-May-07 07:00N 17°01' W 061°46'0 0.0
2017-May-07 06:30N 17°01' W 061°46'0 0.0
2017-May-07 06:00N 17°01' W 061°46'0 0.0
2017-May-07 05:30N 17°01' W 061°46'0 0.0
2017-May-07 05:00N 17°01' W 061°46'0 0.0
2017-May-07 04:30N 17°01' W 061°46'0 0.0
2017-May-07 04:00N 17°01' W 061°46'0 0.0
2017-May-07 03:30N 17°01' W 061°46'0 0.0
2017-May-07 03:00N 17°01' W 061°46'0 0.0
2017-May-07 02:30N 17°01' W 061°46'0 0.0
2017-May-07 02:00N 17°01' W 061°46'0 0.0
2017-May-07 01:30N 17°01' W 061°46'0 0.0
2017-May-07 01:00N 17°01' W 061°46'0 0.0
2017-May-07 00:31N 17°01' W 061°46'0 0.0
2017-May-07 00:01N 17°01' W 061°46'0 0.0
2017-May-06 23:31N 17°01' W 061°46'0 0.0
2017-May-06 23:01N 17°01' W 061°46'0 0.0
2017-May-06 22:28N 17°01' W 061°46'0 0.0
2017-May-06 21:58N 17°01' W 061°46'0 0.0
2017-May-06 21:31N 17°01' W 061°46'0 0.0
2017-May-06 21:01N 17°01' W 061°46'0 0.0
2017-May-06 20:28N 17°01' W 061°46'0 0.0
2017-May-06 20:01N 17°01' W 061°46'0 0.0
2017-May-06 19:28N 17°01' W 061°46'0 0.0
2017-May-06 18:58N 17°01' W 061°46'0 0.0
2017-May-06 18:28N 17°01' W 061°46'0 0.0
2017-May-06 17:58N 17°01' W 061°46'0 0.0
2017-May-06 17:28N 17°01' W 061°46'0 0.0
2017-May-06 16:58N 17°01' W 061°46'0 0.0
2017-May-06 16:28N 17°01' W 061°46'0 0.0
2017-May-06 15:58N 17°01' W 061°46'0 0.0
2017-May-06 15:28N 17°01' W 061°46'0 0.0
2017-May-06 14:58N 17°01' W 061°46'0 0.0
2017-May-06 14:28N 17°01' W 061°46'1 0.9
2017-May-06 13:30N 17°00' W 061°46'0 0.7
2017-May-06 12:59N 17°00' W 061°46'0 0.0
2017-May-06 12:29N 17°00' W 061°46'0 0.0
2017-May-06 11:59N 17°00' W 061°46'0 0.0
2017-May-06 11:29N 17°00' W 061°46'0 0.0
2017-May-06 10:59N 17°00' W 061°46'0 0.0
2017-May-06 10:29N 17°00' W 061°46'0 0.0
2017-May-06 09:59N 17°00' W 061°46'0 0.0
2017-May-06 09:29N 17°00' W 061°46'0 0.0
2017-May-06 08:59N 17°00' W 061°46'0 0.0
2017-May-06 08:29N 17°00' W 061°46'0 0.0
2017-May-06 07:59N 17°00' W 061°46'0 0.0
2017-May-06 07:29N 17°00' W 061°46'0 0.0
2017-May-06 06:59N 17°00' W 061°46'0 0.0
2017-May-06 06:29N 17°00' W 061°46'0 0.0
2017-May-06 05:59N 17°00' W 061°46'0 0.0
2017-May-06 05:29N 17°00' W 061°46'0 0.0
2017-May-06 04:59N 17°00' W 061°46'0 0.0
2017-May-06 04:29N 17°00' W 061°46'0 0.0
2017-May-06 03:59N 17°00' W 061°46'0 0.0
2017-May-06 03:29N 17°00' W 061°46'0 0.0
2017-May-06 02:59N 17°00' W 061°46'0 0.0
2017-May-06 02:26N 17°00' W 061°46'0 0.0
2017-May-06 01:59N 17°00' W 061°46'0 0.0
2017-May-06 01:29N 17°00' W 061°46'0 0.0
2017-May-06 00:59N 17°00' W 061°46'0 0.0
2017-May-06 00:29N 17°00' W 061°46'0 0.0
2017-May-05 23:59N 17°00' W 061°46'0 0.0
2017-May-05 23:29N 17°00' W 061°46'0 0.0
2017-May-05 22:59N 17°00' W 061°46'0 0.0
2017-May-05 22:29N 17°00' W 061°46'0 0.0
2017-May-05 21:59N 17°00' W 061°46'0 0.0
2017-May-05 21:29N 17°00' W 061°46'0 0.0
2017-May-05 20:59N 17°00' W 061°46'0 0.0
2017-May-05 20:29N 17°00' W 061°46'0 0.0
2017-May-05 19:59N 17°00' W 061°46'0 0.0
2017-May-05 19:29N 17°00' W 061°46'0 0.0
2017-May-05 18:59N 17°00' W 061°46'0 0.0
2017-May-05 18:29N 17°00' W 061°46'1 1.0
2017-May-05 18:00N 16°60' W 061°46'0 0.5
2017-May-05 17:30N 16°60' W 061°46'510.1
2017-May-05 17:00N 16°60' W 061°41'1 1.5
2017-May-05 16:30N 17°00' W 061°40'4 7.3
2017-May-05 16:00N 16°59' W 061°44'4 7.4
2017-May-05 15:30N 16°59' W 061°40'1 2.8
2017-May-05 15:00N 17°00' W 061°41'6 5.6
2017-May-05 14:01N 16°60' W 061°47'0 0.6
2017-May-05 13:30N 16°60' W 061°46'1 2.0
2017-May-05 13:00N 17°00' W 061°46'0 0.4
2017-May-05 12:29N 17°00' W 061°46'0 0.0
2017-May-05 11:59N 17°00' W 061°46'0 0.0
2017-May-05 11:29N 17°00' W 061°46'0 0.0
2017-May-05 10:59N 17°00' W 061°46'0 0.0
2017-May-05 10:29N 17°00' W 061°46'0 0.0
2017-May-05 09:59N 17°00' W 061°46'0 0.0
2017-May-05 09:29N 17°00' W 061°46'0 0.0
2017-May-05 08:59N 17°00' W 061°46'0 0.0
2017-May-05 08:29N 17°00' W 061°46'0 0.0
2017-May-05 07:59N 17°00' W 061°46'0 0.0
2017-May-05 07:29N 17°00' W 061°46'0 0.0
2017-May-05 06:59N 17°00' W 061°46'0 0.0
2017-May-05 06:29N 17°00' W 061°46'0 0.0
2017-May-05 05:59N 17°00' W 061°46'0 0.0
2017-May-05 05:29N 17°00' W 061°46'0 0.0
2017-May-05 04:59N 17°00' W 061°46'0 0.0
2017-May-05 04:29N 17°00' W 061°46'0 0.0
2017-May-05 03:59N 17°00' W 061°46'0 0.0
2017-May-05 03:29N 17°00' W 061°46'0 0.0
2017-May-05 02:59N 17°00' W 061°46'0 0.0
2017-May-05 02:29N 17°00' W 061°46'0 0.0
2017-May-05 01:59N 17°00' W 061°46'0 0.0
2017-May-05 01:29N 17°00' W 061°46'0 0.0
2017-May-05 00:59N 17°00' W 061°46'0 0.0
2017-May-05 00:29N 17°00' W 061°46'0 0.0
2017-May-04 23:59N 17°00' W 061°46'0 0.0
2017-May-04 23:29N 17°00' W 061°46'0 0.0
2017-May-04 22:59N 17°00' W 061°46'0 0.0
2017-May-04 22:29N 17°00' W 061°46'0 0.0
2017-May-04 21:59N 17°00' W 061°46'0 0.0
2017-May-04 21:29N 17°00' W 061°46'0 0.0
2017-May-04 20:59N 17°00' W 061°46'0 0.0
2017-May-04 20:29N 17°00' W 061°46'0 0.0
2017-May-04 19:59N 17°00' W 061°46'0 0.0
2017-May-04 19:29N 17°00' W 061°46'0 0.0
2017-May-04 19:00N 17°00' W 061°46'2 4.4
2017-May-04 18:30N 16°60' W 061°48'2 4.2
2017-May-04 18:00N 17°00' W 061°50'3 5.9
2017-May-04 17:28N 16°60' W 061°54'3 7.0
2017-May-04 17:00N 16°59' W 061°50'3 5.5
2017-May-04 16:30N 17°00' W 061°48'1 1.1
2017-May-04 16:00N 16°60' W 061°48'1 1.7
2017-May-04 15:30N 16°60' W 061°49'2 3.4
2017-May-04 15:00N 16°59' W 061°50'2 2.0
2017-May-04 14:00N 17°00' W 061°48'1 1.3
2017-May-04 13:31N 17°00' W 061°48'2 3.3
2017-May-04 12:58N 17°00' W 061°46'0 0.0
2017-May-04 12:28N 17°00' W 061°46'0 0.0
2017-May-04 11:58N 17°00' W 061°46'0 0.0
2017-May-04 11:28N 17°00' W 061°46'0 0.0
2017-May-04 10:58N 17°00' W 061°46'0 0.0
2017-May-04 10:28N 17°00' W 061°46'0 0.0
2017-May-04 09:58N 17°00' W 061°46'0 0.0
2017-May-04 09:28N 17°00' W 061°46'0 0.0
2017-May-04 08:58N 17°00' W 061°46'0 0.0
2017-May-04 08:28N 17°00' W 061°46'0 0.0
2017-May-04 07:58N 17°00' W 061°46'0 0.0
2017-May-04 07:28N 17°00' W 061°46'0 0.0
2017-May-04 06:58N 17°00' W 061°46'0 0.0
2017-May-04 06:28N 17°00' W 061°46'0 0.0
2017-May-04 05:58N 17°00' W 061°46'0 0.0
2017-May-04 05:28N 17°00' W 061°46'0 0.0
2017-May-04 04:58N 17°00' W 061°46'0 0.0
2017-May-04 04:28N 17°00' W 061°46'0 0.0
2017-May-04 03:58N 17°00' W 061°46'0 0.0
2017-May-04 03:28N 17°00' W 061°46'0 0.0
2017-May-04 02:58N 17°00' W 061°46'0 0.0
2017-May-04 02:28N 17°00' W 061°46'0 0.0
2017-May-04 01:58N 17°00' W 061°46'0 0.0
2017-May-04 01:28N 17°00' W 061°46'0 0.0
2017-May-04 00:58N 17°00' W 061°46'0 0.0
2017-May-04 00:28N 17°00' W 061°46'0 0.0
2017-May-03 23:58N 17°00' W 061°46'0 0.0
2017-May-03 23:28N 17°00' W 061°46'0 0.0
2017-May-03 22:58N 17°00' W 061°46'0 0.0
2017-May-03 22:28N 17°00' W 061°46'0 0.0
2017-May-03 21:58N 17°00' W 061°46'0 0.0
2017-May-03 21:28N 17°00' W 061°46'0 0.0
2017-May-03 20:58N 17°00' W 061°46'0 0.0
2017-May-03 20:28N 17°00' W 061°46'0 0.0
2017-May-03 19:58N 17°00' W 061°46'0 0.0
2017-May-03 19:28N 17°00' W 061°46'0 0.0
2017-May-03 18:58N 17°00' W 061°46'0 0.0
2017-May-03 18:28N 17°00' W 061°46'0 0.0
2017-May-03 17:58N 17°00' W 061°46'0 0.0
2017-May-03 17:28N 17°00' W 061°46'0 0.0
2017-May-03 16:58N 17°00' W 061°46'0 0.0
2017-May-03 16:28N 17°00' W 061°46'0 0.0
2017-May-03 15:58N 17°00' W 061°46'0 0.0
2017-May-03 15:28N 17°00' W 061°46'0 0.0
2017-May-03 14:58N 17°00' W 061°46'0 0.0
2017-May-03 14:28N 17°00' W 061°46'0 0.0
2017-May-03 13:28N 17°00' W 061°46'0 0.0
2017-May-03 12:58N 17°00' W 061°46'0 0.0
2017-May-03 12:28N 17°00' W 061°46'0 0.0
2017-May-03 11:58N 17°00' W 061°46'0 0.0
2017-May-03 11:28N 17°00' W 061°46'0 0.0
2017-May-03 10:58N 17°00' W 061°46'0 0.0
2017-May-03 10:28N 17°00' W 061°46'0 0.0
2017-May-03 09:58N 17°00' W 061°46'0 0.0
2017-May-03 09:28N 17°00' W 061°46'0 0.0
2017-May-03 08:58N 17°00' W 061°46'0 0.0
2017-May-03 08:28N 17°00' W 061°46'0 0.0
2017-May-03 07:58N 17°00' W 061°46'0 0.0
2017-May-03 07:28N 17°00' W 061°46'0 0.0
2017-May-03 06:58N 17°00' W 061°46'0 0.0
2017-May-03 06:28N 17°00' W 061°46'0 0.0
2017-May-03 05:58N 17°00' W 061°46'0 0.0
2017-May-03 05:28N 17°00' W 061°46'0 0.0
2017-May-03 04:58N 17°00' W 061°46'0 0.0
2017-May-03 04:28N 17°00' W 061°46'0 0.0
2017-May-03 03:58N 17°00' W 061°46'0 0.0
2017-May-03 03:28N 17°00' W 061°46'0 0.0
2017-May-03 02:58N 17°00' W 061°46'0 0.0
2017-May-03 02:28N 17°00' W 061°46'0 0.0
2017-May-03 01:58N 17°00' W 061°46'0 0.0
2017-May-03 01:28N 17°00' W 061°46'0 0.0
2017-May-03 00:58N 17°00' W 061°46'0 0.0
2017-May-03 00:28N 17°00' W 061°46'0 0.0
2017-May-02 23:58N 17°00' W 061°46'0 0.0
2017-May-02 23:28N 17°00' W 061°46'  

Dump ship's entire track history